sensor_id;sensor_type;location;lat;lon;timestamp;P1;P2;P0
79689;PMS5003;69156;55.932;-3.238;2024-01-11T00:01:24;1;1;
79689;PMS5003;69156;55.932;-3.238;2024-01-11T00:03:49;2;2;
79689;PMS5003;69156;55.932;-3.238;2024-01-11T00:06:14;1;1;
79689;PMS5003;69156;55.932;-3.238;2024-01-11T00:08:40;2;2;
79689;PMS5003;69156;55.932;-3.238;2024-01-11T00:11:06;1;1;
79689;PMS5003;69156;55.932;-3.238;2024-01-11T00:13:32;1;1;
79689;PMS5003;69156;55.932;-3.238;2024-01-11T00:15:58;1;1;
79689;PMS5003;69156;55.932;-3.238;2024-01-11T00:18:23;1;1;
79689;PMS5003;69156;55.932;-3.238;2024-01-11T00:20:49;2;2;
79689;PMS5003;69156;55.932;-3.238;2024-01-11T00:23:14;1;1;
79689;PMS5003;69156;55.932;-3.238;2024-01-11T00:25:39;1;1;
79689;PMS5003;69156;55.932;-3.238;2024-01-11T00:28:05;1;1;
79689;PMS5003;69156;55.932;-3.238;2024-01-11T00:30:31;1;1;
79689;PMS5003;69156;55.932;-3.238;2024-01-11T00:32:56;2;1;
79689;PMS5003;69156;55.932;-3.238;2024-01-11T00:35:21;2;2;
79689;PMS5003;69156;55.932;-3.238;2024-01-11T00:37:47;1;1;
79689;PMS5003;69156;55.932;-3.238;2024-01-11T00:40:12;1;1;
79689;PMS5003;69156;55.932;-3.238;2024-01-11T00:42:37;2;2;
79689;PMS5003;69156;55.932;-3.238;2024-01-11T00:45:04;1;1;
79689;PMS5003;69156;55.932;-3.238;2024-01-11T00:47:28;1;1;
79689;PMS5003;69156;55.932;-3.238;2024-01-11T00:49:54;1;1;
79689;PMS5003;69156;55.932;-3.238;2024-01-11T00:52:20;1;1;
79689;PMS5003;69156;55.932;-3.238;2024-01-11T00:54:46;1;1;
79689;PMS5003;69156;55.932;-3.238;2024-01-11T00:57:11;2;1;
79689;PMS5003;69156;55.932;-3.238;2024-01-11T00:59:37;2;2;
79689;PMS5003;69156;55.932;-3.238;2024-01-11T01:02:02;2;2;
79689;PMS5003;69156;55.932;-3.238;2024-01-11T01:04:27;1;1;
79689;PMS5003;69156;55.932;-3.238;2024-01-11T01:06:52;1;1;
79689;PMS5003;69156;55.932;-3.238;2024-01-11T01:09:17;1;1;
79689;PMS5003;69156;55.932;-3.238;2024-01-11T01:11:43;3;2;
79689;PMS5003;69156;55.932;-3.238;2024-01-11T01:14:09;3;3;
79689;PMS5003;69156;55.932;-3.238;2024-01-11T01:16:34;1;1;
79689;PMS5003;69156;55.932;-3.238;2024-01-11T01:19:00;3;1;
79689;PMS5003;69156;55.932;-3.238;2024-01-11T01:21:25;1;1;
79689;PMS5003;69156;55.932;-3.238;2024-01-11T01:23:50;1;1;
79689;PMS5003;69156;55.932;-3.238;2024-01-11T01:26:16;2;2;
79689;PMS5003;69156;55.932;-3.238;2024-01-11T01:28:42;2;2;
79689;PMS5003;69156;55.932;-3.238;2024-01-11T01:31:07;2;2;
79689;PMS5003;69156;55.932;-3.238;2024-01-11T01:33:32;1;1;
79689;PMS5003;69156;55.932;-3.238;2024-01-11T01:35:58;1;1;
79689;PMS5003;69156;55.932;-3.238;2024-01-11T01:38:23;3;3;
79689;PMS5003;69156;55.932;-3.238;2024-01-11T01:40:48;2;2;
79689;PMS5003;69156;55.932;-3.238;2024-01-11T01:43:14;1;1;
79689;PMS5003;69156;55.932;-3.238;2024-01-11T01:45:40;3;3;
79689;PMS5003;69156;55.932;-3.238;2024-01-11T01:48:05;1;1;
79689;PMS5003;69156;55.932;-3.238;2024-01-11T01:50:31;1;1;
79689;PMS5003;69156;55.932;-3.238;2024-01-11T01:52:57;1;1;
79689;PMS5003;69156;55.932;-3.238;2024-01-11T01:55:22;0;0;
79689;PMS5003;69156;55.932;-3.238;2024-01-11T01:57:47;1;1;
79689;PMS5003;69156;55.932;-3.238;2024-01-11T02:00:13;2;1;
79689;PMS5003;69156;55.932;-3.238;2024-01-11T02:02:38;1;1;
79689;PMS5003;69156;55.932;-3.238;2024-01-11T02:05:05;2;2;
79689;PMS5003;69156;55.932;-3.238;2024-01-11T02:07:30;1;1;
79689;PMS5003;69156;55.932;-3.238;2024-01-11T02:09:56;3;3;
79689;PMS5003;69156;55.932;-3.238;2024-01-11T02:12:21;2;2;
79689;PMS5003;69156;55.932;-3.238;2024-01-11T02:14:47;1;1;
79689;PMS5003;69156;55.932;-3.238;2024-01-11T02:17:12;2;2;
79689;PMS5003;69156;55.932;-3.238;2024-01-11T02:19:38;2;2;
79689;PMS5003;69156;55.932;-3.238;2024-01-11T02:22:05;2;2;
79689;PMS5003;69156;55.932;-3.238;2024-01-11T02:24:30;1;1;
79689;PMS5003;69156;55.932;-3.238;2024-01-11T02:26:59;2;1;
79689;PMS5003;69156;55.932;-3.238;2024-01-11T02:29:20;0;0;
79689;PMS5003;69156;55.932;-3.238;2024-01-11T02:31:46;2;2;
79689;PMS5003;69156;55.932;-3.238;2024-01-11T02:34:12;2;1;
79689;PMS5003;69156;55.932;-3.238;2024-01-11T02:36:37;3;3;
79689;PMS5003;69156;55.932;-3.238;2024-01-11T02:39:02;1;1;
79689;PMS5003;69156;55.932;-3.238;2024-01-11T02:41:29;1;1;
79689;PMS5003;69156;55.932;-3.238;2024-01-11T02:43:55;1;1;
79689;PMS5003;69156;55.932;-3.238;2024-01-11T02:46:20;3;2;
79689;PMS5003;69156;55.932;-3.238;2024-01-11T02:48:45;2;2;
79689;PMS5003;69156;55.932;-3.238;2024-01-11T02:51:10;1;1;
79689;PMS5003;69156;55.932;-3.238;2024-01-11T02:53:36;3;3;
79689;PMS5003;69156;55.932;-3.238;2024-01-11T02:56:02;6;5;
79689;PMS5003;69156;55.932;-3.238;2024-01-11T02:58:27;2;2;
79689;PMS5003;69156;55.932;-3.238;2024-01-11T03:00:52;3;3;
79689;PMS5003;69156;55.932;-3.238;2024-01-11T03:03:18;3;3;
79689;PMS5003;69156;55.932;-3.238;2024-01-11T03:05:43;3;3;
79689;PMS5003;69156;55.932;-3.238;2024-01-11T03:08:09;1;1;
79689;PMS5003;69156;55.932;-3.238;2024-01-11T03:10:36;2;1;
79689;PMS5003;69156;55.932;-3.238;2024-01-11T03:13:00;2;2;
79689;PMS5003;69156;55.932;-3.238;2024-01-11T03:15:25;1;1;
79689;PMS5003;69156;55.932;-3.238;2024-01-11T03:17:51;2;2;
79689;PMS5003;69156;55.932;-3.238;2024-01-11T03:20:17;3;3;
79689;PMS5003;69156;55.932;-3.238;2024-01-11T03:22:45;1;1;
79689;PMS5003;69156;55.932;-3.238;2024-01-11T03:25:10;2;2;
79689;PMS5003;69156;55.932;-3.238;2024-01-11T03:27:35;1;1;
79689;PMS5003;69156;55.932;-3.238;2024-01-11T03:30:00;3;3;
79689;PMS5003;69156;55.932;-3.238;2024-01-11T03:32:26;2;2;
79689;PMS5003;69156;55.932;-3.238;2024-01-11T03:34:51;1;1;
79689;PMS5003;69156;55.932;-3.238;2024-01-11T03:37:16;2;2;
79689;PMS5003;69156;55.932;-3.238;2024-01-11T03:39:41;1;1;
79689;PMS5003;69156;55.932;-3.238;2024-01-11T03:42:07;1;1;
79689;PMS5003;69156;55.932;-3.238;2024-01-11T03:44:32;1;1;
79689;PMS5003;69156;55.932;-3.238;2024-01-11T03:46:58;2;2;
79689;PMS5003;69156;55.932;-3.238;2024-01-11T03:49:23;2;2;
79689;PMS5003;69156;55.932;-3.238;2024-01-11T03:51:49;2;2;
79689;PMS5003;69156;55.932;-3.238;2024-01-11T03:54:14;2;2;
79689;PMS5003;69156;55.932;-3.238;2024-01-11T03:56:39;3;3;
79689;PMS5003;69156;55.932;-3.238;2024-01-11T03:59:05;3;2;
79689;PMS5003;69156;55.932;-3.238;2024-01-11T04:01:30;2;2;
79689;PMS5003;69156;55.932;-3.238;2024-01-11T04:03:56;2;2;
79689;PMS5003;69156;55.932;-3.238;2024-01-11T04:06:21;2;2;
79689;PMS5003;69156;55.932;-3.238;2024-01-11T04:08:46;2;2;
79689;PMS5003;69156;55.932;-3.238;2024-01-11T04:11:12;5;3;
79689;PMS5003;69156;55.932;-3.238;2024-01-11T04:13:37;2;2;
79689;PMS5003;69156;55.932;-3.238;2024-01-11T04:16:04;3;2;
79689;PMS5003;69156;55.932;-3.238;2024-01-11T04:18:28;3;3;
79689;PMS5003;69156;55.932;-3.238;2024-01-11T04:20:54;1;1;
79689;PMS5003;69156;55.932;-3.238;2024-01-11T04:23:19;2;2;
79689;PMS5003;69156;55.932;-3.238;2024-01-11T04:25:45;3;3;
79689;PMS5003;69156;55.932;-3.238;2024-01-11T04:28:11;2;2;
79689;PMS5003;69156;55.932;-3.238;2024-01-11T04:30:36;1;1;
79689;PMS5003;69156;55.932;-3.238;2024-01-11T04:33:02;1;1;
79689;PMS5003;69156;55.932;-3.238;2024-01-11T04:35:27;1;1;
79689;PMS5003;69156;55.932;-3.238;2024-01-11T04:37:53;1;1;
79689;PMS5003;69156;55.932;-3.238;2024-01-11T04:40:19;2;2;
79689;PMS5003;69156;55.932;-3.238;2024-01-11T04:42:44;5;5;
79689;PMS5003;69156;55.932;-3.238;2024-01-11T04:45:10;2;2;
79689;PMS5003;69156;55.932;-3.238;2024-01-11T04:47:36;3;3;
79689;PMS5003;69156;55.932;-3.238;2024-01-11T04:50:01;2;2;
79689;PMS5003;69156;55.932;-3.238;2024-01-11T04:52:27;3;3;
79689;PMS5003;69156;55.932;-3.238;2024-01-11T04:54:53;3;3;
79689;PMS5003;69156;55.932;-3.238;2024-01-11T04:57:18;6;6;
79689;PMS5003;69156;55.932;-3.238;2024-01-11T04:59:44;6;6;
79689;PMS5003;69156;55.932;-3.238;2024-01-11T05:02:09;5;5;
79689;PMS5003;69156;55.932;-3.238;2024-01-11T05:04:35;3;3;
79689;PMS5003;69156;55.932;-3.238;2024-01-11T05:07:01;3;3;
79689;PMS5003;69156;55.932;-3.238;2024-01-11T05:09:27;3;3;
79689;PMS5003;69156;55.932;-3.238;2024-01-11T05:11:53;6;6;
79689;PMS5003;69156;55.932;-3.238;2024-01-11T05:14:18;3;3;
79689;PMS5003;69156;55.932;-3.238;2024-01-11T05:16:43;2;2;
79689;PMS5003;69156;55.932;-3.238;2024-01-11T05:19:09;3;3;
79689;PMS5003;69156;55.932;-3.238;2024-01-11T05:21:34;2;2;
79689;PMS5003;69156;55.932;-3.238;2024-01-11T05:23:59;2;2;
79689;PMS5003;69156;55.932;-3.238;2024-01-11T05:26:25;5;3;
79689;PMS5003;69156;55.932;-3.238;2024-01-11T05:28:51;3;3;
79689;PMS5003;69156;55.932;-3.238;2024-01-11T05:31:16;2;2;
79689;PMS5003;69156;55.932;-3.238;2024-01-11T05:33:42;5;5;
79689;PMS5003;69156;55.932;-3.238;2024-01-11T05:36:07;6;5;
79689;PMS5003;69156;55.932;-3.238;2024-01-11T05:38:33;2;2;
79689;PMS5003;69156;55.932;-3.238;2024-01-11T05:40:59;5;5;
79689;PMS5003;69156;55.932;-3.238;2024-01-11T05:43:24;5;5;
79689;PMS5003;69156;55.932;-3.238;2024-01-11T05:45:50;5;5;
79689;PMS5003;69156;55.932;-3.238;2024-01-11T05:48:15;5;5;
79689;PMS5003;69156;55.932;-3.238;2024-01-11T05:50:41;5;3;
79689;PMS5003;69156;55.932;-3.238;2024-01-11T05:53:07;3;3;
79689;PMS5003;69156;55.932;-3.238;2024-01-11T05:55:32;3;3;
79689;PMS5003;69156;55.932;-3.238;2024-01-11T05:57:57;5;5;
79689;PMS5003;69156;55.932;-3.238;2024-01-11T06:00:23;3;3;
79689;PMS5003;69156;55.932;-3.238;2024-01-11T06:02:48;3;3;
79689;PMS5003;69156;55.932;-3.238;2024-01-11T06:05:14;5;5;
79689;PMS5003;69156;55.932;-3.238;2024-01-11T06:07:39;2;2;
79689;PMS5003;69156;55.932;-3.238;2024-01-11T06:10:04;2;2;
79689;PMS5003;69156;55.932;-3.238;2024-01-11T06:12:30;3;3;
79689;PMS5003;69156;55.932;-3.238;2024-01-11T06:14:55;6;6;
79689;PMS5003;69156;55.932;-3.238;2024-01-11T06:17:20;3;3;
79689;PMS5003;69156;55.932;-3.238;2024-01-11T06:19:47;6;5;
79689;PMS5003;69156;55.932;-3.238;2024-01-11T06:22:12;5;5;
79689;PMS5003;69156;55.932;-3.238;2024-01-11T06:24:38;6;6;
79689;PMS5003;69156;55.932;-3.238;2024-01-11T06:27:04;5;5;
79689;PMS5003;69156;55.932;-3.238;2024-01-11T06:29:29;5;5;
79689;PMS5003;69156;55.932;-3.238;2024-01-11T06:31:55;5;5;
79689;PMS5003;69156;55.932;-3.238;2024-01-11T06:34:21;6;6;
79689;PMS5003;69156;55.932;-3.238;2024-01-11T06:36:47;5;5;
79689;PMS5003;69156;55.932;-3.238;2024-01-11T06:39:12;7;7;
79689;PMS5003;69156;55.932;-3.238;2024-01-11T06:41:38;5;5;
79689;PMS5003;69156;55.932;-3.238;2024-01-11T06:44:02;6;6;
79689;PMS5003;69156;55.932;-3.238;2024-01-11T06:46:27;5;5;
79689;PMS5003;69156;55.932;-3.238;2024-01-11T06:48:53;3;3;
79689;PMS5003;69156;55.932;-3.238;2024-01-11T06:51:20;5;5;
79689;PMS5003;69156;55.932;-3.238;2024-01-11T06:53:44;5;5;
79689;PMS5003;69156;55.932;-3.238;2024-01-11T06:56:13;5;5;
79689;PMS5003;69156;55.932;-3.238;2024-01-11T06:58:34;5;5;
79689;PMS5003;69156;55.932;-3.238;2024-01-11T07:01:00;7;6;
79689;PMS5003;69156;55.932;-3.238;2024-01-11T07:03:25;5;5;
79689;PMS5003;69156;55.932;-3.238;2024-01-11T07:05:51;5;5;
79689;PMS5003;69156;55.932;-3.238;2024-01-11T07:08:16;15;15;
79689;PMS5003;69156;55.932;-3.238;2024-01-11T07:10:42;6;6;
79689;PMS5003;69156;55.932;-3.238;2024-01-11T07:13:07;5;5;
79689;PMS5003;69156;55.932;-3.238;2024-01-11T07:15:33;6;6;
79689;PMS5003;69156;55.932;-3.238;2024-01-11T07:17:59;6;6;
79689;PMS5003;69156;55.932;-3.238;2024-01-11T07:20:24;6;6;
79689;PMS5003;69156;55.932;-3.238;2024-01-11T07:22:50;5;5;
79689;PMS5003;69156;55.932;-3.238;2024-01-11T07:25:16;5;5;
79689;PMS5003;69156;55.932;-3.238;2024-01-11T07:27:41;5;5;
79689;PMS5003;69156;55.932;-3.238;2024-01-11T07:30:07;5;5;
79689;PMS5003;69156;55.932;-3.238;2024-01-11T07:32:32;3;3;
79689;PMS5003;69156;55.932;-3.238;2024-01-11T07:34:57;6;6;
79689;PMS5003;69156;55.932;-3.238;2024-01-11T07:37:23;5;5;
79689;PMS5003;69156;55.932;-3.238;2024-01-11T07:39:49;3;3;
79689;PMS5003;69156;55.932;-3.238;2024-01-11T07:42:14;6;5;
79689;PMS5003;69156;55.932;-3.238;2024-01-11T07:44:39;3;3;
79689;PMS5003;69156;55.932;-3.238;2024-01-11T07:47:05;3;3;
79689;PMS5003;69156;55.932;-3.238;2024-01-11T07:49:30;2;2;
79689;PMS5003;69156;55.932;-3.238;2024-01-11T07:51:56;3;3;
79689;PMS5003;69156;55.932;-3.238;2024-01-11T07:54:21;5;3;
79689;PMS5003;69156;55.932;-3.238;2024-01-11T07:56:47;5;5;
79689;PMS5003;69156;55.932;-3.238;2024-01-11T07:59:12;7;6;
79689;PMS5003;69156;55.932;-3.238;2024-01-11T08:01:38;5;5;
79689;PMS5003;69156;55.932;-3.238;2024-01-11T08:04:04;5;5;
79689;PMS5003;69156;55.932;-3.238;2024-01-11T08:06:30;3;3;
79689;PMS5003;69156;55.932;-3.238;2024-01-11T08:08:55;3;3;
79689;PMS5003;69156;55.932;-3.238;2024-01-11T08:11:20;3;3;
79689;PMS5003;69156;55.932;-3.238;2024-01-11T08:13:46;6;6;
79689;PMS5003;69156;55.932;-3.238;2024-01-11T08:16:15;5;5;
79689;PMS5003;69156;55.932;-3.238;2024-01-11T08:18:38;3;3;
79689;PMS5003;69156;55.932;-3.238;2024-01-11T08:21:04;5;5;
79689;PMS5003;69156;55.932;-3.238;2024-01-11T08:23:30;5;5;
79689;PMS5003;69156;55.932;-3.238;2024-01-11T08:25:55;7;7;
79689;PMS5003;69156;55.932;-3.238;2024-01-11T08:28:22;3;3;
79689;PMS5003;69156;55.932;-3.238;2024-01-11T08:30:48;7;7;
79689;PMS5003;69156;55.932;-3.238;2024-01-11T08:33:13;7;7;
79689;PMS5003;69156;55.932;-3.238;2024-01-11T08:35:39;9;9;
79689;PMS5003;69156;55.932;-3.238;2024-01-11T08:38:04;6;6;
79689;PMS5003;69156;55.932;-3.238;2024-01-11T08:40:30;9;7;
79689;PMS5003;69156;55.932;-3.238;2024-01-11T08:42:55;7;7;
79689;PMS5003;69156;55.932;-3.238;2024-01-11T08:45:21;7;6;
79689;PMS5003;69156;55.932;-3.238;2024-01-11T08:47:47;3;3;
79689;PMS5003;69156;55.932;-3.238;2024-01-11T08:50:13;5;5;
79689;PMS5003;69156;55.932;-3.238;2024-01-11T08:52:38;5;5;
79689;PMS5003;69156;55.932;-3.238;2024-01-11T08:55:04;5;5;
79689;PMS5003;69156;55.932;-3.238;2024-01-11T08:57:29;3;3;
79689;PMS5003;69156;55.932;-3.238;2024-01-11T08:59:54;3;3;
79689;PMS5003;69156;55.932;-3.238;2024-01-11T09:02:21;6;6;
79689;PMS5003;69156;55.932;-3.238;2024-01-11T09:04:46;5;3;
79689;PMS5003;69156;55.932;-3.238;2024-01-11T09:07:12;5;5;
79689;PMS5003;69156;55.932;-3.238;2024-01-11T09:09:37;3;3;
79689;PMS5003;69156;55.932;-3.238;2024-01-11T09:12:03;3;3;
79689;PMS5003;69156;55.932;-3.238;2024-01-11T09:14:28;6;5;
79689;PMS5003;69156;55.932;-3.238;2024-01-11T09:16:53;5;5;
79689;PMS5003;69156;55.932;-3.238;2024-01-11T09:19:19;5;5;
79689;PMS5003;69156;55.932;-3.238;2024-01-11T09:21:45;6;6;
79689;PMS5003;69156;55.932;-3.238;2024-01-11T09:24:10;5;5;
79689;PMS5003;69156;55.932;-3.238;2024-01-11T09:26:36;3;3;
79689;PMS5003;69156;55.932;-3.238;2024-01-11T09:29:03;3;3;
79689;PMS5003;69156;55.932;-3.238;2024-01-11T09:31:28;5;5;
79689;PMS5003;69156;55.932;-3.238;2024-01-11T09:33:54;5;5;
79689;PMS5003;69156;55.932;-3.238;2024-01-11T09:36:20;5;5;
79689;PMS5003;69156;55.932;-3.238;2024-01-11T09:38:45;5;5;
79689;PMS5003;69156;55.932;-3.238;2024-01-11T09:41:12;3;3;
79689;PMS5003;69156;55.932;-3.238;2024-01-11T09:43:38;3;3;
79689;PMS5003;69156;55.932;-3.238;2024-01-11T09:46:04;3;3;
79689;PMS5003;69156;55.932;-3.238;2024-01-11T09:48:28;3;3;
79689;PMS5003;69156;55.932;-3.238;2024-01-11T09:50:54;3;3;
79689;PMS5003;69156;55.932;-3.238;2024-01-11T09:53:19;3;3;
79689;PMS5003;69156;55.932;-3.238;2024-01-11T09:55:45;5;5;
79689;PMS5003;69156;55.932;-3.238;2024-01-11T09:58:10;5;5;
79689;PMS5003;69156;55.932;-3.238;2024-01-11T10:00:36;2;2;
79689;PMS5003;69156;55.932;-3.238;2024-01-11T10:03:02;2;2;
79689;PMS5003;69156;55.932;-3.238;2024-01-11T10:05:27;3;3;
79689;PMS5003;69156;55.932;-3.238;2024-01-11T10:07:52;6;6;
79689;PMS5003;69156;55.932;-3.238;2024-01-11T10:10:18;5;3;
79689;PMS5003;69156;55.932;-3.238;2024-01-11T10:12:43;3;2;
79689;PMS5003;69156;55.932;-3.238;2024-01-11T10:15:09;2;1;
79689;PMS5003;69156;55.932;-3.238;2024-01-11T10:17:34;2;2;
79689;PMS5003;69156;55.932;-3.238;2024-01-11T10:20:00;2;2;
79689;PMS5003;69156;55.932;-3.238;2024-01-11T10:22:25;3;3;
79689;PMS5003;69156;55.932;-3.238;2024-01-11T10:24:50;3;3;
79689;PMS5003;69156;55.932;-3.238;2024-01-11T10:27:15;2;2;
79689;PMS5003;69156;55.932;-3.238;2024-01-11T10:29:41;3;3;
79689;PMS5003;69156;55.932;-3.238;2024-01-11T10:32:06;2;2;
79689;PMS5003;69156;55.932;-3.238;2024-01-11T10:34:31;3;3;
79689;PMS5003;69156;55.932;-3.238;2024-01-11T10:36:57;5;3;
79689;PMS5003;69156;55.932;-3.238;2024-01-11T10:39:23;2;2;
79689;PMS5003;69156;55.932;-3.238;2024-01-11T10:41:49;2;2;
79689;PMS5003;69156;55.932;-3.238;2024-01-11T10:44:16;2;1;
79689;PMS5003;69156;55.932;-3.238;2024-01-11T10:46:39;1;1;
79689;PMS5003;69156;55.932;-3.238;2024-01-11T10:49:04;2;2;
79689;PMS5003;69156;55.932;-3.238;2024-01-11T10:51:30;2;2;
79689;PMS5003;69156;55.932;-3.238;2024-01-11T10:53:55;2;2;
79689;PMS5003;69156;55.932;-3.238;2024-01-11T10:56:21;6;5;
79689;PMS5003;69156;55.932;-3.238;2024-01-11T10:58:47;3;3;
79689;PMS5003;69156;55.932;-3.238;2024-01-11T11:01:12;3;2;
79689;PMS5003;69156;55.932;-3.238;2024-01-11T11:03:39;3;3;
79689;PMS5003;69156;55.932;-3.238;2024-01-11T11:06:05;3;3;
79689;PMS5003;69156;55.932;-3.238;2024-01-11T11:08:30;3;3;
79689;PMS5003;69156;55.932;-3.238;2024-01-11T11:10:56;2;2;
79689;PMS5003;69156;55.932;-3.238;2024-01-11T11:13:22;3;3;
79689;PMS5003;69156;55.932;-3.238;2024-01-11T11:15:48;2;2;
79689;PMS5003;69156;55.932;-3.238;2024-01-11T11:18:14;2;2;
79689;PMS5003;69156;55.932;-3.238;2024-01-11T11:20:40;5;5;
79689;PMS5003;69156;55.932;-3.238;2024-01-11T11:23:06;3;2;
79689;PMS5003;69156;55.932;-3.238;2024-01-11T11:25:31;6;5;
79689;PMS5003;69156;55.932;-3.238;2024-01-11T11:27:57;3;3;
79689;PMS5003;69156;55.932;-3.238;2024-01-11T11:30:22;2;2;
79689;PMS5003;69156;55.932;-3.238;2024-01-11T11:32:48;2;2;
79689;PMS5003;69156;55.932;-3.238;2024-01-11T11:35:13;2;2;
79689;PMS5003;69156;55.932;-3.238;2024-01-11T11:37:39;3;3;
79689;PMS5003;69156;55.932;-3.238;2024-01-11T11:40:06;3;3;
79689;PMS5003;69156;55.932;-3.238;2024-01-11T11:42:33;5;5;
79689;PMS5003;69156;55.932;-3.238;2024-01-11T11:44:57;2;2;
79689;PMS5003;69156;55.932;-3.238;2024-01-11T11:47:23;2;2;
79689;PMS5003;69156;55.932;-3.238;2024-01-11T11:50:05;1;1;
79689;PMS5003;69156;55.932;-3.238;2024-01-11T11:52:14;1;1;
79689;PMS5003;69156;55.932;-3.238;2024-01-11T11:54:40;2;2;
79689;PMS5003;69156;55.932;-3.238;2024-01-11T11:57:05;0;0;
79689;PMS5003;69156;55.932;-3.238;2024-01-11T11:59:31;2;2;
79689;PMS5003;69156;55.932;-3.238;2024-01-11T12:01:56;1;1;
79689;PMS5003;69156;55.932;-3.238;2024-01-11T12:04:22;2;2;
79689;PMS5003;69156;55.932;-3.238;2024-01-11T12:06:47;2;1;
79689;PMS5003;69156;55.932;-3.238;2024-01-11T12:09:13;1;1;
79689;PMS5003;69156;55.932;-3.238;2024-01-11T12:11:38;2;2;
79689;PMS5003;69156;55.932;-3.238;2024-01-11T12:14:04;2;2;
79689;PMS5003;69156;55.932;-3.238;2024-01-11T12:16:30;3;3;
79689;PMS5003;69156;55.932;-3.238;2024-01-11T12:18:55;1;1;
79689;PMS5003;69156;55.932;-3.238;2024-01-11T12:21:22;2;2;
79689;PMS5003;69156;55.932;-3.238;2024-01-11T12:23:47;1;1;
79689;PMS5003;69156;55.932;-3.238;2024-01-11T12:26:13;1;1;
79689;PMS5003;69156;55.932;-3.238;2024-01-11T12:28:38;3;3;
79689;PMS5003;69156;55.932;-3.238;2024-01-11T12:31:04;1;1;
79689;PMS5003;69156;55.932;-3.238;2024-01-11T12:33:30;1;1;
79689;PMS5003;69156;55.932;-3.238;2024-01-11T12:35:55;1;1;
79689;PMS5003;69156;55.932;-3.238;2024-01-11T12:38:22;0;0;
79689;PMS5003;69156;55.932;-3.238;2024-01-11T12:40:47;5;5;
79689;PMS5003;69156;55.932;-3.238;2024-01-11T12:43:12;2;2;
79689;PMS5003;69156;55.932;-3.238;2024-01-11T12:45:38;2;2;
79689;PMS5003;69156;55.932;-3.238;2024-01-11T12:48:06;1;1;
79689;PMS5003;69156;55.932;-3.238;2024-01-11T12:50:30;1;1;
79689;PMS5003;69156;55.932;-3.238;2024-01-11T12:53:11;3;2;
79689;PMS5003;69156;55.932;-3.238;2024-01-11T12:55:20;3;3;
79689;PMS5003;69156;55.932;-3.238;2024-01-11T12:57:46;2;2;
79689;PMS5003;69156;55.932;-3.238;2024-01-11T13:00:13;5;2;
79689;PMS5003;69156;55.932;-3.238;2024-01-11T13:02:38;1;1;
79689;PMS5003;69156;55.932;-3.238;2024-01-11T13:05:04;2;2;
79689;PMS5003;69156;55.932;-3.238;2024-01-11T13:07:30;1;1;
79689;PMS5003;69156;55.932;-3.238;2024-01-11T13:09:54;3;2;
79689;PMS5003;69156;55.932;-3.238;2024-01-11T13:12:20;2;2;
79689;PMS5003;69156;55.932;-3.238;2024-01-11T13:14:45;3;3;
79689;PMS5003;69156;55.932;-3.238;2024-01-11T13:17:10;3;2;
79689;PMS5003;69156;55.932;-3.238;2024-01-11T13:19:35;2;2;
79689;PMS5003;69156;55.932;-3.238;2024-01-11T13:22:02;2;1;
79689;PMS5003;69156;55.932;-3.238;2024-01-11T13:24:27;2;2;
79689;PMS5003;69156;55.932;-3.238;2024-01-11T13:26:53;2;2;
79689;PMS5003;69156;55.932;-3.238;2024-01-11T13:29:19;2;2;
79689;PMS5003;69156;55.932;-3.238;2024-01-11T13:31:44;1;1;
79689;PMS5003;69156;55.932;-3.238;2024-01-11T13:34:11;1;1;
79689;PMS5003;69156;55.932;-3.238;2024-01-11T13:36:36;2;2;
79689;PMS5003;69156;55.932;-3.238;2024-01-11T13:39:02;2;2;
79689;PMS5003;69156;55.932;-3.238;2024-01-11T13:41:27;1;1;
79689;PMS5003;69156;55.932;-3.238;2024-01-11T13:43:53;3;3;
79689;PMS5003;69156;55.932;-3.238;2024-01-11T13:46:19;3;2;
79689;PMS5003;69156;55.932;-3.238;2024-01-11T13:48:44;1;1;
79689;PMS5003;69156;55.932;-3.238;2024-01-11T13:51:09;1;1;
79689;PMS5003;69156;55.932;-3.238;2024-01-11T13:53:34;1;1;
79689;PMS5003;69156;55.932;-3.238;2024-01-11T13:56:00;1;1;
79689;PMS5003;69156;55.932;-3.238;2024-01-11T13:58:25;1;1;
79689;PMS5003;69156;55.932;-3.238;2024-01-11T14:00:50;1;1;
79689;PMS5003;69156;55.932;-3.238;2024-01-11T14:03:16;2;2;
79689;PMS5003;69156;55.932;-3.238;2024-01-11T14:05:41;1;1;
79689;PMS5003;69156;55.932;-3.238;2024-01-11T14:08:06;1;1;
79689;PMS5003;69156;55.932;-3.238;2024-01-11T14:10:32;1;1;
79689;PMS5003;69156;55.932;-3.238;2024-01-11T14:12:58;1;1;
79689;PMS5003;69156;55.932;-3.238;2024-01-11T14:15:23;1;1;
79689;PMS5003;69156;55.932;-3.238;2024-01-11T14:17:49;2;2;
79689;PMS5003;69156;55.932;-3.238;2024-01-11T14:20:14;2;2;
79689;PMS5003;69156;55.932;-3.238;2024-01-11T14:22:40;1;1;
79689;PMS5003;69156;55.932;-3.238;2024-01-11T14:25:06;1;1;
79689;PMS5003;69156;55.932;-3.238;2024-01-11T14:27:32;0;0;
79689;PMS5003;69156;55.932;-3.238;2024-01-11T14:29:57;2;2;
79689;PMS5003;69156;55.932;-3.238;2024-01-11T14:32:24;1;1;
79689;PMS5003;69156;55.932;-3.238;2024-01-11T14:34:49;2;1;
79689;PMS5003;69156;55.932;-3.238;2024-01-11T14:37:14;1;0;
79689;PMS5003;69156;55.932;-3.238;2024-01-11T14:39:40;0;0;
79689;PMS5003;69156;55.932;-3.238;2024-01-11T14:42:05;2;1;
79689;PMS5003;69156;55.932;-3.238;2024-01-11T14:44:30;0;0;
79689;PMS5003;69156;55.932;-3.238;2024-01-11T14:46:56;2;2;
79689;PMS5003;69156;55.932;-3.238;2024-01-11T14:49:22;0;0;
79689;PMS5003;69156;55.932;-3.238;2024-01-11T14:51:47;1;1;
79689;PMS5003;69156;55.932;-3.238;2024-01-11T14:54:12;1;1;
79689;PMS5003;69156;55.932;-3.238;2024-01-11T14:56:38;0;0;
79689;PMS5003;69156;55.932;-3.238;2024-01-11T14:59:03;1;1;
79689;PMS5003;69156;55.932;-3.238;2024-01-11T15:01:28;1;1;
79689;PMS5003;69156;55.932;-3.238;2024-01-11T15:03:54;0;0;
79689;PMS5003;69156;55.932;-3.238;2024-01-11T15:06:19;0;0;
79689;PMS5003;69156;55.932;-3.238;2024-01-11T15:08:45;0;0;
79689;PMS5003;69156;55.932;-3.238;2024-01-11T15:11:10;0;0;
79689;PMS5003;69156;55.932;-3.238;2024-01-11T15:13:35;1;1;
79689;PMS5003;69156;55.932;-3.238;2024-01-11T15:16:01;0;0;
79689;PMS5003;69156;55.932;-3.238;2024-01-11T15:18:26;0;0;
79689;PMS5003;69156;55.932;-3.238;2024-01-11T15:20:51;0;0;
79689;PMS5003;69156;55.932;-3.238;2024-01-11T15:23:17;1;1;
79689;PMS5003;69156;55.932;-3.238;2024-01-11T15:25:43;1;1;
79689;PMS5003;69156;55.932;-3.238;2024-01-11T15:28:08;1;1;
79689;PMS5003;69156;55.932;-3.238;2024-01-11T15:30:34;1;0;
79689;PMS5003;69156;55.932;-3.238;2024-01-11T15:33:00;1;1;
79689;PMS5003;69156;55.932;-3.238;2024-01-11T15:35:25;1;0;
79689;PMS5003;69156;55.932;-3.238;2024-01-11T15:37:51;1;1;
79689;PMS5003;69156;55.932;-3.238;2024-01-11T15:40:17;1;1;
79689;PMS5003;69156;55.932;-3.238;2024-01-11T15:42:41;0;0;
79689;PMS5003;69156;55.932;-3.238;2024-01-11T15:45:07;1;1;
79689;PMS5003;69156;55.932;-3.238;2024-01-11T15:47:33;0;0;
79689;PMS5003;69156;55.932;-3.238;2024-01-11T15:49:58;1;1;
79689;PMS5003;69156;55.932;-3.238;2024-01-11T15:52:23;0;0;
79689;PMS5003;69156;55.932;-3.238;2024-01-11T15:54:49;1;1;
79689;PMS5003;69156;55.932;-3.238;2024-01-11T15:57:15;2;2;
79689;PMS5003;69156;55.932;-3.238;2024-01-11T15:59:40;0;0;
79689;PMS5003;69156;55.932;-3.238;2024-01-11T16:02:05;0;0;
79689;PMS5003;69156;55.932;-3.238;2024-01-11T16:04:31;0;0;
79689;PMS5003;69156;55.932;-3.238;2024-01-11T16:06:57;1;1;
79689;PMS5003;69156;55.932;-3.238;2024-01-11T16:09:23;1;1;
79689;PMS5003;69156;55.932;-3.238;2024-01-11T16:11:48;0;0;
79689;PMS5003;69156;55.932;-3.238;2024-01-11T16:14:13;1;1;
79689;PMS5003;69156;55.932;-3.238;2024-01-11T16:16:39;1;1;
79689;PMS5003;69156;55.932;-3.238;2024-01-11T16:19:11;1;1;
79689;PMS5003;69156;55.932;-3.238;2024-01-11T16:21:37;1;0;